sensor_id;sensor_type;location;lat;lon;timestamp;temperature;humidity
2721;DHT22;1368;49.484;11.112;2023-08-30T00:02:04;15.20;99.90
2721;DHT22;1368;49.484;11.112;2023-08-30T00:04:30;15.10;99.90
2721;DHT22;1368;49.484;11.112;2023-08-30T00:06:56;15.00;99.90
2721;DHT22;1368;49.484;11.112;2023-08-30T00:09:21;14.90;99.90
2721;DHT22;1368;49.484;11.112;2023-08-30T00:11:47;15.50;99.90
2721;DHT22;1368;49.484;11.112;2023-08-30T00:14:12;15.00;99.90
2721;DHT22;1368;49.484;11.112;2023-08-30T00:16:38;15.30;99.90
2721;DHT22;1368;49.484;11.112;2023-08-30T00:19:03;15.00;99.90
2721;DHT22;1368;49.484;11.112;2023-08-30T00:21:29;15.00;99.90
2721;DHT22;1368;49.484;11.112;2023-08-30T00:23:55;15.40;99.90
2721;DHT22;1368;49.484;11.112;2023-08-30T00:26:21;15.10;99.90
2721;DHT22;1368;49.484;11.112;2023-08-30T00:28:47;15.00;99.90
2721;DHT22;1368;49.484;11.112;2023-08-30T00:31:12;14.90;99.90
2721;DHT22;1368;49.484;11.112;2023-08-30T00:33:38;15.20;99.90
2721;DHT22;1368;49.484;11.112;2023-08-30T00:36:03;15.00;99.90
2721;DHT22;1368;49.484;11.112;2023-08-30T00:38:32;14.70;99.90
2721;DHT22;1368;49.484;11.112;2023-08-30T00:40:58;14.70;99.90
2721;DHT22;1368;49.484;11.112;2023-08-30T00:43:24;14.90;99.90
2721;DHT22;1368;49.484;11.112;2023-08-30T00:45:49;14.60;99.90
2721;DHT22;1368;49.484;11.112;2023-08-30T00:48:17;14.50;99.90
2721;DHT22;1368;49.484;11.112;2023-08-30T00:50:45;14.50;99.90
2721;DHT22;1368;49.484;11.112;2023-08-30T00:53:11;14.40;99.90
2721;DHT22;1368;49.484;11.112;2023-08-30T00:55:37;14.40;99.90
2721;DHT22;1368;49.484;11.112;2023-08-30T00:58:05;14.30;99.90
2721;DHT22;1368;49.484;11.112;2023-08-30T01:00:31;14.20;99.90
2721;DHT22;1368;49.484;11.112;2023-08-30T01:02:57;14.60;99.90
2721;DHT22;1368;49.484;11.112;2023-08-30T01:05:23;14.20;99.90
2721;DHT22;1368;49.484;11.112;2023-08-30T01:07:52;14.30;99.90
2721;DHT22;1368;49.484;11.112;2023-08-30T01:10:25;14.30;99.90
2721;DHT22;1368;49.484;11.112;2023-08-30T01:12:57;14.30;99.90
2721;DHT22;1368;49.484;11.112;2023-08-30T01:15:26;14.20;99.90
2721;DHT22;1368;49.484;11.112;2023-08-30T01:17:53;14.10;99.90
2721;DHT22;1368;49.484;11.112;2023-08-30T01:20:21;14.10;99.90
2721;DHT22;1368;49.484;11.112;2023-08-30T01:23:01;14.00;99.90
2721;DHT22;1368;49.484;11.112;2023-08-30T01:28:30;14.00;99.90
2721;DHT22;1368;49.484;11.112;2023-08-30T01:30:57;14.10;99.90
2721;DHT22;1368;49.484;11.112;2023-08-30T01:33:24;14.10;99.90
2721;DHT22;1368;49.484;11.112;2023-08-30T01:35:54;14.10;99.90
2721;DHT22;1368;49.484;11.112;2023-08-30T01:38:21;14.10;99.90
2721;DHT22;1368;49.484;11.112;2023-08-30T01:40:48;14.10;99.90
2721;DHT22;1368;49.484;11.112;2023-08-30T01:43:14;14.20;99.90
2721;DHT22;1368;49.484;11.112;2023-08-30T01:45:43;14.20;99.90
2721;DHT22;1368;49.484;11.112;2023-08-30T01:48:12;14.30;99.90
2721;DHT22;1368;49.484;11.112;2023-08-30T01:50:39;14.40;99.90
2721;DHT22;1368;49.484;11.112;2023-08-30T01:53:07;14.50;99.90
2721;DHT22;1368;49.484;11.112;2023-08-30T01:55:34;14.50;99.90
2721;DHT22;1368;49.484;11.112;2023-08-30T01:58:00;14.50;99.90
2721;DHT22;1368;49.484;11.112;2023-08-30T02:00:26;14.60;99.90
2721;DHT22;1368;49.484;11.112;2023-08-30T02:02:52;14.60;99.90
2721;DHT22;1368;49.484;11.112;2023-08-30T02:05:17;14.70;99.90
2721;DHT22;1368;49.484;11.112;2023-08-30T02:07:57;14.70;99.90
2721;DHT22;1368;49.484;11.112;2023-08-30T02:10:28;14.80;99.90
2721;DHT22;1368;49.484;11.112;2023-08-30T02:12:57;14.80;99.90
2721;DHT22;1368;49.484;11.112;2023-08-30T02:15:25;14.90;99.90
2721;DHT22;1368;49.484;11.112;2023-08-30T02:17:52;15.00;99.90
2721;DHT22;1368;49.484;11.112;2023-08-30T02:20:18;14.90;99.90
2721;DHT22;1368;49.484;11.112;2023-08-30T02:22:43;14.90;99.90
2721;DHT22;1368;49.484;11.112;2023-08-30T02:25:09;14.80;99.90
2721;DHT22;1368;49.484;11.112;2023-08-30T02:27:35;14.80;99.90
2721;DHT22;1368;49.484;11.112;2023-08-30T02:30:02;14.90;99.90
2721;DHT22;1368;49.484;11.112;2023-08-30T02:32:28;14.80;99.90
2721;DHT22;1368;49.484;11.112;2023-08-30T02:34:53;14.70;99.90
2721;DHT22;1368;49.484;11.112;2023-08-30T02:37:19;14.70;99.90
2721;DHT22;1368;49.484;11.112;2023-08-30T02:39:45;14.60;99.90
2721;DHT22;1368;49.484;11.112;2023-08-30T02:42:11;15.20;99.90
2721;DHT22;1368;49.484;11.112;2023-08-30T02:44:36;14.70;99.90
2721;DHT22;1368;49.484;11.112;2023-08-30T02:47:02;14.80;99.90
2721;DHT22;1368;49.484;11.112;2023-08-30T02:49:27;14.80;99.90
2721;DHT22;1368;49.484;11.112;2023-08-30T02:51:53;14.80;99.90
2721;DHT22;1368;49.484;11.112;2023-08-30T02:54:18;14.80;99.90
2721;DHT22;1368;49.484;11.112;2023-08-30T02:56:44;14.80;99.90
2721;DHT22;1368;49.484;11.112;2023-08-30T02:59:10;14.70;99.90
2721;DHT22;1368;49.484;11.112;2023-08-30T03:01:36;14.70;99.90
2721;DHT22;1368;49.484;11.112;2023-08-30T03:04:04;14.70;99.90
2721;DHT22;1368;49.484;11.112;2023-08-30T03:06:30;14.70;99.90
2721;DHT22;1368;49.484;11.112;2023-08-30T03:08:55;14.90;99.90
2721;DHT22;1368;49.484;11.112;2023-08-30T03:11:21;14.60;99.90
2721;DHT22;1368;49.484;11.112;2023-08-30T03:13:46;14.40;99.90
2721;DHT22;1368;49.484;11.112;2023-08-30T03:16:13;14.20;99.90
2721;DHT22;1368;49.484;11.112;2023-08-30T03:18:40;14.20;99.90
2721;DHT22;1368;49.484;11.112;2023-08-30T03:21:06;14.20;99.90
2721;DHT22;1368;49.484;11.112;2023-08-30T03:23:32;14.30;99.90
2721;DHT22;1368;49.484;11.112;2023-08-30T03:26:11;14.40;99.90
2721;DHT22;1368;49.484;11.112;2023-08-30T03:28:37;14.40;99.90
2721;DHT22;1368;49.484;11.112;2023-08-30T03:31:17;14.40;99.90
2721;DHT22;1368;49.484;11.112;2023-08-30T03:33:43;14.50;99.90
2721;DHT22;1368;49.484;11.112;2023-08-30T03:36:14;14.50;99.90
2721;DHT22;1368;49.484;11.112;2023-08-30T03:38:40;14.30;99.90
2721;DHT22;1368;49.484;11.112;2023-08-30T03:41:06;14.20;99.90
2721;DHT22;1368;49.484;11.112;2023-08-30T03:43:32;14.30;99.90
2721;DHT22;1368;49.484;11.112;2023-08-30T03:46:01;14.30;99.90
2721;DHT22;1368;49.484;11.112;2023-08-30T03:48:28;14.40;99.90
2721;DHT22;1368;49.484;11.112;2023-08-30T03:50:54;14.40;99.90
2721;DHT22;1368;49.484;11.112;2023-08-30T03:53:20;14.40;99.90
2721;DHT22;1368;49.484;11.112;2023-08-30T03:55:46;14.40;99.90
2721;DHT22;1368;49.484;11.112;2023-08-30T03:58:11;14.30;99.90
2721;DHT22;1368;49.484;11.112;2023-08-30T04:00:38;14.30;99.90
2721;DHT22;1368;49.484;11.112;2023-08-30T04:03:05;14.40;99.90
2721;DHT22;1368;49.484;11.112;2023-08-30T04:05:33;14.40;99.90
2721;DHT22;1368;49.484;11.112;2023-08-30T04:08:00;14.90;99.90
2721;DHT22;1368;49.484;11.112;2023-08-30T04:10:26;14.40;99.90
2721;DHT22;1368;49.484;11.112;2023-08-30T04:12:52;14.40;99.90
2721;DHT22;1368;49.484;11.112;2023-08-30T04:15:17;14.40;99.90
2721;DHT22;1368;49.484;11.112;2023-08-30T04:17:43;14.20;99.90
2721;DHT22;1368;49.484;11.112;2023-08-30T04:20:09;14.10;99.90
2721;DHT22;1368;49.484;11.112;2023-08-30T04:22:36;14.10;99.90
2721;DHT22;1368;49.484;11.112;2023-08-30T04:25:02;14.20;99.90
2721;DHT22;1368;49.484;11.112;2023-08-30T04:27:28;14.30;99.90
2721;DHT22;1368;49.484;11.112;2023-08-30T04:29:53;14.30;99.90
2721;DHT22;1368;49.484;11.112;2023-08-30T04:32:19;14.40;99.90
2721;DHT22;1368;49.484;11.112;2023-08-30T04:34:44;14.40;99.90
2721;DHT22;1368;49.484;11.112;2023-08-30T04:37:10;14.60;99.90
2721;DHT22;1368;49.484;11.112;2023-08-30T04:39:35;14.40;99.90
2721;DHT22;1368;49.484;11.112;2023-08-30T04:42:01;14.50;99.90
2721;DHT22;1368;49.484;11.112;2023-08-30T04:44:28;14.60;99.90
2721;DHT22;1368;49.484;11.112;2023-08-30T04:46:54;14.60;99.90
2721;DHT22;1368;49.484;11.112;2023-08-30T04:49:20;15.00;99.90
2721;DHT22;1368;49.484;11.112;2023-08-30T04:51:46;14.70;99.90
2721;DHT22;1368;49.484;11.112;2023-08-30T04:54:12;14.90;99.90
2721;DHT22;1368;49.484;11.112;2023-08-30T04:56:38;15.00;99.90
2721;DHT22;1368;49.484;11.112;2023-08-30T04:59:03;15.40;99.90
2721;DHT22;1368;49.484;11.112;2023-08-30T05:01:30;15.10;99.90
2721;DHT22;1368;49.484;11.112;2023-08-30T05:03:55;15.10;99.90
2721;DHT22;1368;49.484;11.112;2023-08-30T05:06:21;15.10;99.90
2721;DHT22;1368;49.484;11.112;2023-08-30T05:08:46;15.00;99.90
2721;DHT22;1368;49.484;11.112;2023-08-30T05:11:12;15.30;99.90
2721;DHT22;1368;49.484;11.112;2023-08-30T05:13:38;15.20;99.90
2721;DHT22;1368;49.484;11.112;2023-08-30T05:16:04;15.30;99.90
2721;DHT22;1368;49.484;11.112;2023-08-30T05:18:30;15.40;99.90
2721;DHT22;1368;49.484;11.112;2023-08-30T05:20:55;15.40;99.90
2721;DHT22;1368;49.484;11.112;2023-08-30T05:23:21;15.40;99.90
2721;DHT22;1368;49.484;11.112;2023-08-30T05:25:46;15.50;99.90
2721;DHT22;1368;49.484;11.112;2023-08-30T05:28:12;15.60;99.90
2721;DHT22;1368;49.484;11.112;2023-08-30T05:30:41;15.70;99.90
2721;DHT22;1368;49.484;11.112;2023-08-30T05:33:07;15.50;99.90
2721;DHT22;1368;49.484;11.112;2023-08-30T05:35:32;15.30;99.90
2721;DHT22;1368;49.484;11.112;2023-08-30T05:37:58;15.40;99.90
2721;DHT22;1368;49.484;11.112;2023-08-30T05:40:23;15.50;99.90
2721;DHT22;1368;49.484;11.112;2023-08-30T05:42:49;16.00;99.90
2721;DHT22;1368;49.484;11.112;2023-08-30T05:45:15;15.80;99.90
2721;DHT22;1368;49.484;11.112;2023-08-30T05:47:41;15.90;99.90
2721;DHT22;1368;49.484;11.112;2023-08-30T05:50:07;15.90;99.90
2721;DHT22;1368;49.484;11.112;2023-08-30T05:52:33;16.00;99.90
2721;DHT22;1368;49.484;11.112;2023-08-30T05:54:58;16.00;99.90
2721;DHT22;1368;49.484;11.112;2023-08-30T05:57:24;16.30;99.90
2721;DHT22;1368;49.484;11.112;2023-08-30T05:59:50;16.40;99.90
2721;DHT22;1368;49.484;11.112;2023-08-30T06:02:16;16.80;99.90
2721;DHT22;1368;49.484;11.112;2023-08-30T06:04:41;17.00;99.90
2721;DHT22;1368;49.484;11.112;2023-08-30T06:07:07;16.80;99.90
2721;DHT22;1368;49.484;11.112;2023-08-30T06:09:33;17.00;99.90
2721;DHT22;1368;49.484;11.112;2023-08-30T06:11:59;17.40;99.90
2721;DHT22;1368;49.484;11.112;2023-08-30T06:14:25;17.30;99.90
2721;DHT22;1368;49.484;11.112;2023-08-30T06:16:50;17.50;99.90
2721;DHT22;1368;49.484;11.112;2023-08-30T06:19:16;17.50;99.90
2721;DHT22;1368;49.484;11.112;2023-08-30T06:21:41;17.90;99.90
2721;DHT22;1368;49.484;11.112;2023-08-30T06:24:07;17.90;99.90
2721;DHT22;1368;49.484;11.112;2023-08-30T06:26:33;17.90;99.90
2721;DHT22;1368;49.484;11.112;2023-08-30T06:28:58;18.30;99.90
2721;DHT22;1368;49.484;11.112;2023-08-30T06:31:24;18.20;99.90
2721;DHT22;1368;49.484;11.112;2023-08-30T06:33:51;18.10;99.90
2721;DHT22;1368;49.484;11.112;2023-08-30T06:36:17;18.20;99.90
2721;DHT22;1368;49.484;11.112;2023-08-30T06:38:43;18.30;99.90
2721;DHT22;1368;49.484;11.112;2023-08-30T06:41:09;18.60;99.90
2721;DHT22;1368;49.484;11.112;2023-08-30T06:43:34;19.00;99.90
2721;DHT22;1368;49.484;11.112;2023-08-30T06:46:00;19.20;99.90
2721;DHT22;1368;49.484;11.112;2023-08-30T06:48:26;19.10;99.90
2721;DHT22;1368;49.484;11.112;2023-08-30T06:50:51;19.10;99.90
2721;DHT22;1368;49.484;11.112;2023-08-30T06:53:17;19.20;99.90
2721;DHT22;1368;49.484;11.112;2023-08-30T06:55:42;19.40;99.90
2721;DHT22;1368;49.484;11.112;2023-08-30T06:58:08;19.40;99.90
2721;DHT22;1368;49.484;11.112;2023-08-30T07:00:33;19.40;99.90
2721;DHT22;1368;49.484;11.112;2023-08-30T07:02:59;19.40;99.90
2721;DHT22;1368;49.484;11.112;2023-08-30T07:05:25;19.60;99.90
2721;DHT22;1368;49.484;11.112;2023-08-30T07:07:50;19.70;99.90
2721;DHT22;1368;49.484;11.112;2023-08-30T07:10:16;19.80;99.90
2721;DHT22;1368;49.484;11.112;2023-08-30T07:12:42;19.70;99.90
2721;DHT22;1368;49.484;11.112;2023-08-30T07:15:08;19.80;99.90
2721;DHT22;1368;49.484;11.112;2023-08-30T07:17:33;20.20;99.90
2721;DHT22;1368;49.484;11.112;2023-08-30T07:19:59;20.40;99.90
2721;DHT22;1368;49.484;11.112;2023-08-30T07:22:24;20.50;99.90
2721;DHT22;1368;49.484;11.112;2023-08-30T07:24:50;20.60;99.90
2721;DHT22;1368;49.484;11.112;2023-08-30T07:27:16;20.70;99.90
2721;DHT22;1368;49.484;11.112;2023-08-30T07:29:42;21.10;99.90
2721;DHT22;1368;49.484;11.112;2023-08-30T07:32:10;20.90;99.90
2721;DHT22;1368;49.484;11.112;2023-08-30T07:34:35;20.60;99.90
2721;DHT22;1368;49.484;11.112;2023-08-30T07:37:01;20.60;99.90
2721;DHT22;1368;49.484;11.112;2023-08-30T07:39:27;21.00;99.90
2721;DHT22;1368;49.484;11.112;2023-08-30T07:41:52;21.00;99.90
2721;DHT22;1368;49.484;11.112;2023-08-30T07:44:18;21.20;99.90
2721;DHT22;1368;49.484;11.112;2023-08-30T07:46:45;21.40;99.90
2721;DHT22;1368;49.484;11.112;2023-08-30T07:49:11;21.50;99.90
2721;DHT22;1368;49.484;11.112;2023-08-30T07:51:36;20.30;99.90
2721;DHT22;1368;49.484;11.112;2023-08-30T07:54:02;20.00;99.90
2721;DHT22;1368;49.484;11.112;2023-08-30T07:56:27;20.20;99.90
2721;DHT22;1368;49.484;11.112;2023-08-30T07:58:54;20.50;99.90
2721;DHT22;1368;49.484;11.112;2023-08-30T08:01:20;20.70;99.90
2721;DHT22;1368;49.484;11.112;2023-08-30T08:03:46;21.00;99.90
2721;DHT22;1368;49.484;11.112;2023-08-30T08:06:12;20.90;99.90
2721;DHT22;1368;49.484;11.112;2023-08-30T08:08:37;20.90;99.90
2721;DHT22;1368;49.484;11.112;2023-08-30T08:11:03;21.30;99.90
2721;DHT22;1368;49.484;11.112;2023-08-30T08:13:29;21.20;99.90
2721;DHT22;1368;49.484;11.112;2023-08-30T08:15:56;21.60;99.90
2721;DHT22;1368;49.484;11.112;2023-08-30T08:18:22;22.00;99.90
2721;DHT22;1368;49.484;11.112;2023-08-30T08:20:48;22.10;99.90
2721;DHT22;1368;49.484;11.112;2023-08-30T08:23:13;22.80;99.90
2721;DHT22;1368;49.484;11.112;2023-08-30T08:25:39;24.00;99.90
2721;DHT22;1368;49.484;11.112;2023-08-30T08:28:04;25.30;99.90
2721;DHT22;1368;49.484;11.112;2023-08-30T08:30:30;26.10;99.90
2721;DHT22;1368;49.484;11.112;2023-08-30T08:32:57;26.30;99.90
2721;DHT22;1368;49.484;11.112;2023-08-30T08:35:22;27.20;99.90
2721;DHT22;1368;49.484;11.112;2023-08-30T08:37:48;28.10;99.70
2721;DHT22;1368;49.484;11.112;2023-08-30T08:40:13;28.40;97.90
2721;DHT22;1368;49.484;11.112;2023-08-30T08:42:39;27.20;98.10
2721;DHT22;1368;49.484;11.112;2023-08-30T08:45:07;26.60;99.30
2721;DHT22;1368;49.484;11.112;2023-08-30T08:47:35;26.30;99.70
2721;DHT22;1368;49.484;11.112;2023-08-30T08:50:01;26.90;99.40
2721;DHT22;1368;49.484;11.112;2023-08-30T08:52:29;26.80;99.90
2721;DHT22;1368;49.484;11.112;2023-08-30T08:54:55;27.90;99.90
2721;DHT22;1368;49.484;11.112;2023-08-30T08:57:21;28.70;98.70
2721;DHT22;1368;49.484;11.112;2023-08-30T08:59:46;28.80;97.20
2721;DHT22;1368;49.484;11.112;2023-08-30T09:02:14;29.10;96.20
2721;DHT22;1368;49.484;11.112;2023-08-30T09:04:40;29.10;95.70
2721;DHT22;1368;49.484;11.112;2023-08-30T09:07:06;28.90;96.80
2721;DHT22;1368;49.484;11.112;2023-08-30T09:09:33;28.20;97.10
2721;DHT22;1368;49.484;11.112;2023-08-30T09:11:58;27.90;96.20
2721;DHT22;1368;49.484;11.112;2023-08-30T09:14:24;27.40;97.30
2721;DHT22;1368;49.484;11.112;2023-08-30T09:17:00;27.00;99.10
2721;DHT22;1368;49.484;11.112;2023-08-30T09:19:26;27.00;99.10
2721;DHT22;1368;49.484;11.112;2023-08-30T09:21:53;27.00;99.50
2721;DHT22;1368;49.484;11.112;2023-08-30T09:24:19;26.60;99.00
2721;DHT22;1368;49.484;11.112;2023-08-30T09:26:52;26.20;99.90
2721;DHT22;1368;49.484;11.112;2023-08-30T09:29:19;25.30;99.90
2721;DHT22;1368;49.484;11.112;2023-08-30T09:31:45;25.30;99.90
2721;DHT22;1368;49.484;11.112;2023-08-30T09:34:11;25.30;99.90
2721;DHT22;1368;49.484;11.112;2023-08-30T09:36:41;25.30;99.90
2721;DHT22;1368;49.484;11.112;2023-08-30T09:39:14;24.70;99.90
2721;DHT22;1368;49.484;11.112;2023-08-30T09:41:44;24.80;99.90
2721;DHT22;1368;49.484;11.112;2023-08-30T09:44:20;25.00;99.90
2721;DHT22;1368;49.484;11.112;2023-08-30T09:46:55;25.00;99.90
2721;DHT22;1368;49.484;11.112;2023-08-30T09:49:23;25.60;99.90
2721;DHT22;1368;49.484;11.112;2023-08-30T09:51:50;25.00;99.90
2721;DHT22;1368;49.484;11.112;2023-08-30T09:54:24;25.30;99.90
2721;DHT22;1368;49.484;11.112;2023-08-30T09:56:51;25.50;99.90
2721;DHT22;1368;49.484;11.112;2023-08-30T09:59:22;25.20;99.90
2721;DHT22;1368;49.484;11.112;2023-08-30T10:01:48;25.50;99.90
2721;DHT22;1368;49.484;11.112;2023-08-30T10:04:15;26.10;99.90
2721;DHT22;1368;49.484;11.112;2023-08-30T10:06:40;26.10;99.90
2721;DHT22;1368;49.484;11.112;2023-08-30T10:09:08;25.90;99.90
2721;DHT22;1368;49.484;11.112;2023-08-30T10:11:36;26.10;99.10
2721;DHT22;1368;49.484;11.112;2023-08-30T10:14:05;26.10;99.20
2721;DHT22;1368;49.484;11.112;2023-08-30T10:19:11;26.30;99.90
2721;DHT22;1368;49.484;11.112;2023-08-30T10:21:36;26.50;99.60
2721;DHT22;1368;49.484;11.112;2023-08-30T10:24:04;26.50;98.60
2721;DHT22;1368;49.484;11.112;2023-08-30T10:26:31;26.60;99.70
2721;DHT22;1368;49.484;11.112;2023-08-30T10:28:58;26.60;98.80
2721;DHT22;1368;49.484;11.112;2023-08-30T10:31:24;26.50;99.70
2721;DHT22;1368;49.484;11.112;2023-08-30T10:33:52;26.20;98.90
2721;DHT22;1368;49.484;11.112;2023-08-30T10:36:25;25.90;99.70
2721;DHT22;1368;49.484;11.112;2023-08-30T10:38:54;25.80;99.50
2721;DHT22;1368;49.484;11.112;2023-08-30T10:41:26;26.40;99.90
2721;DHT22;1368;49.484;11.112;2023-08-30T10:43:54;26.40;99.40
2721;DHT22;1368;49.484;11.112;2023-08-30T10:46:34;26.70;98.80
2721;DHT22;1368;49.484;11.112;2023-08-30T10:49:11;26.50;97.80
2721;DHT22;1368;49.484;11.112;2023-08-30T10:51:40;26.50;99.10
2721;DHT22;1368;49.484;11.112;2023-08-30T10:54:13;26.70;97.90
2721;DHT22;1368;49.484;11.112;2023-08-30T10:59:20;27.00;97.10
2721;DHT22;1368;49.484;11.112;2023-08-30T11:01:46;27.30;98.70
2721;DHT22;1368;49.484;11.112;2023-08-30T11:04:15;26.70;98.90
2721;DHT22;1368;49.484;11.112;2023-08-30T11:06:47;26.40;97.40
2721;DHT22;1368;49.484;11.112;2023-08-30T11:09:18;26.00;98.30
2721;DHT22;1368;49.484;11.112;2023-08-30T11:11:47;26.10;99.60
2721;DHT22;1368;49.484;11.112;2023-08-30T11:14:13;26.60;99.90
2721;DHT22;1368;49.484;11.112;2023-08-30T11:16:40;26.90;97.70
2721;DHT22;1368;49.484;11.112;2023-08-30T11:19:06;26.90;97.80
2721;DHT22;1368;49.484;11.112;2023-08-30T11:21:34;26.30;98.00
2721;DHT22;1368;49.484;11.112;2023-08-30T11:24:00;26.10;98.80
2721;DHT22;1368;49.484;11.112;2023-08-30T11:26:26;25.80;98.50
2721;DHT22;1368;49.484;11.112;2023-08-30T11:28:51;25.40;99.50
2721;DHT22;1368;49.484;11.112;2023-08-30T11:31:25;25.20;98.00
2721;DHT22;1368;49.484;11.112;2023-08-30T11:33:57;25.80;98.70
2721;DHT22;1368;49.484;11.112;2023-08-30T11:36:25;25.50;97.40
2721;DHT22;1368;49.484;11.112;2023-08-30T11:38:52;26.20;97.70
2721;DHT22;1368;49.484;11.112;2023-08-30T11:41:20;25.90;97.60
2721;DHT22;1368;49.484;11.112;2023-08-30T11:43:45;25.80;97.30
2721;DHT22;1368;49.484;11.112;2023-08-30T11:46:12;25.80;97.50
2721;DHT22;1368;49.484;11.112;2023-08-30T11:48:38;25.90;97.80
2721;DHT22;1368;49.484;11.112;2023-08-30T11:51:05;25.90;98.50
2721;DHT22;1368;49.484;11.112;2023-08-30T11:53:31;25.80;99.80
2721;DHT22;1368;49.484;11.112;2023-08-30T11:55:57;25.80;98.80
2721;DHT22;1368;49.484;11.112;2023-08-30T11:58:22;25.50;98.50
2721;DHT22;1368;49.484;11.112;2023-08-30T12:00:52;25.40;99.10
2721;DHT22;1368;49.484;11.112;2023-08-30T12:03:22;25.20;99.10
2721;DHT22;1368;49.484;11.112;2023-08-30T12:05:49;25.30;99.90
2721;DHT22;1368;49.484;11.112;2023-08-30T12:08:29;25.20;98.40
2721;DHT22;1368;49.484;11.112;2023-08-30T12:10:56;25.90;99.20
2721;DHT22;1368;49.484;11.112;2023-08-30T12:13:26;25.10;99.40
2721;DHT22;1368;49.484;11.112;2023-08-30T12:15:53;25.00;99.90
2721;DHT22;1368;49.484;11.112;2023-08-30T12:18:29;25.50;99.90
2721;DHT22;1368;49.484;11.112;2023-08-30T12:20:56;24.70;99.90
2721;DHT22;1368;49.484;11.112;2023-08-30T12:23:24;24.70;99.90
2721;DHT22;1368;49.484;11.112;2023-08-30T12:26:10;24.60;99.90
2721;DHT22;1368;49.484;11.112;2023-08-30T12:28:40;24.40;99.90
2721;DHT22;1368;49.484;11.112;2023-08-30T12:31:07;24.30;99.90
2721;DHT22;1368;49.484;11.112;2023-08-30T12:33:33;24.20;99.90
2721;DHT22;1368;49.484;11.112;2023-08-30T12:36:00;24.10;99.90
2721;DHT22;1368;49.484;11.112;2023-08-30T12:38:25;24.40;99.90
2721;DHT22;1368;49.484;11.112;2023-08-30T12:40:53;24.00;99.90
2721;DHT22;1368;49.484;11.112;2023-08-30T12:43:20;24.20;99.90
2721;DHT22;1368;49.484;11.112;2023-08-30T12:45:46;24.20;99.90
2721;DHT22;1368;49.484;11.112;2023-08-30T12:48:13;24.40;99.90
2721;DHT22;1368;49.484;11.112;2023-08-30T12:50:44;25.10;99.90
2721;DHT22;1368;49.484;11.112;2023-08-30T12:53:10;25.10;99.90
2721;DHT22;1368;49.484;11.112;2023-08-30T12:55:36;25.30;99.90
2721;DHT22;1368;49.484;11.112;2023-08-30T12:58:02;25.50;98.70
2721;DHT22;1368;49.484;11.112;2023-08-30T13:00:28;25.30;99.90
2721;DHT22;1368;49.484;11.112;2023-08-30T13:02:53;25.20;99.80
2721;DHT22;1368;49.484;11.112;2023-08-30T13:05:19;25.40;99.20
2721;DHT22;1368;49.484;11.112;2023-08-30T13:07:45;25.50;99.90
2721;DHT22;1368;49.484;11.112;2023-08-30T13:10:11;25.60;99.90
2721;DHT22;1368;49.484;11.112;2023-08-30T13:12:36;25.60;99.90
2721;DHT22;1368;49.484;11.112;2023-08-30T13:15:03;25.50;99.60
2721;DHT22;1368;49.484;11.112;2023-08-30T13:17:29;25.20;99.90
2721;DHT22;1368;49.484;11.112;2023-08-30T13:19:54;25.00;99.90
2721;DHT22;1368;49.484;11.112;2023-08-30T13:22:22;25.00;99.90
2721;DHT22;1368;49.484;11.112;2023-08-30T13:24:47;25.00;99.90
2721;DHT22;1368;49.484;11.112;2023-08-30T13:27:13;24.60;98.40
2721;DHT22;1368;49.484;11.112;2023-08-30T13:29:38;24.30;99.90
2721;DHT22;1368;49.484;11.112;2023-08-30T13:32:04;25.00;99.90
2721;DHT22;1368;49.484;11.112;2023-08-30T13:34:30;24.50;99.70
2721;DHT22;1368;49.484;11.112;2023-08-30T13:36:56;24.60;98.80
2721;DHT22;1368;49.484;11.112;2023-08-30T13:39:21;25.20;99.90
2721;DHT22;1368;49.484;11.112;2023-08-30T13:41:47;24.40;97.40
2721;DHT22;1368;49.484;11.112;2023-08-30T13:44:13;24.40;97.80
2721;DHT22;1368;49.484;11.112;2023-08-30T13:46:39;24.30;99.30
2721;DHT22;1368;49.484;11.112;2023-08-30T13:49:05;24.30;99.90
2721;DHT22;1368;49.484;11.112;2023-08-30T13:51:31;24.50;99.90
2721;DHT22;1368;49.484;11.112;2023-08-30T13:53:56;25.00;99.80
2721;DHT22;1368;49.484;11.112;2023-08-30T13:56:23;25.30;98.60
2721;DHT22;1368;49.484;11.112;2023-08-30T13:58:48;25.40;96.50
2721;DHT22;1368;49.484;11.112;2023-08-30T14:01:14;26.00;98.00
2721;DHT22;1368;49.484;11.112;2023-08-30T14:03:40;25.00;97.40
2721;DHT22;1368;49.484;11.112;2023-08-30T14:06:05;24.80;99.20
2721;DHT22;1368;49.484;11.112;2023-08-30T14:08:32;24.40;99.10
2721;DHT22;1368;49.484;11.112;2023-08-30T14:10:57;25.00;99.70
2721;DHT22;1368;49.484;11.112;2023-08-30T14:13:23;24.30;99.00
2721;DHT22;1368;49.484;11.112;2023-08-30T14:15:49;24.90;99.10
2721;DHT22;1368;49.484;11.112;2023-08-30T14:18:15;24.40;99.20
2721;DHT22;1368;49.484;11.112;2023-08-30T14:20:42;24.50;99.90
2721;DHT22;1368;49.484;11.112;2023-08-30T14:23:07;24.80;99.10
2721;DHT22;1368;49.484;11.112;2023-08-30T14:25:33;24.60;99.60
2721;DHT22;1368;49.484;11.112;2023-08-30T14:28:00;24.70;99.90
2721;DHT22;1368;49.484;11.112;2023-08-30T14:30:26;24.40;99.90
2721;DHT22;1368;49.484;11.112;2023-08-30T14:32:52;24.10;99.80
2721;DHT22;1368;49.484;11.112;2023-08-30T14:35:18;24.20;99.90
2721;DHT22;1368;49.484;11.112;2023-08-30T14:37:46;24.40;99.60
2721;DHT22;1368;49.484;11.112;2023-08-30T14:40:12;25.20;99.90
2721;DHT22;1368;49.484;11.112;2023-08-30T14:42:38;24.40;99.80
2721;DHT22;1368;49.484;11.112;2023-08-30T14:45:04;24.40;99.80
2721;DHT22;1368;49.484;11.112;2023-08-30T14:47:32;24.70;99.40
2721;DHT22;1368;49.484;11.112;2023-08-30T14:49:57;24.60;99.30
2721;DHT22;1368;49.484;11.112;2023-08-30T14:52:23;24.50;99.90
2721;DHT22;1368;49.484;11.112;2023-08-30T14:54:49;25.00;99.90
2721;DHT22;1368;49.484;11.112;2023-08-30T14:57:14;24.20;99.90
2721;DHT22;1368;49.484;11.112;2023-08-30T14:59:40;24.10;99.90
2721;DHT22;1368;49.484;11.112;2023-08-30T15:02:06;24.10;99.90
2721;DHT22;1368;49.484;11.112;2023-08-30T15:04:31;24.10;99.90
2721;DHT22;1368;49.484;11.112;2023-08-30T15:06:57;24.20;99.90
2721;DHT22;1368;49.484;11.112;2023-08-30T15:09:22;24.10;99.30
2721;DHT22;1368;49.484;11.112;2023-08-30T15:11:48;24.10;99.90
2721;DHT22;1368;49.484;11.112;2023-08-30T15:14:13;23.80;99.80
2721;DHT22;1368;49.484;11.112;2023-08-30T15:16:39;23.80;99.40
2721;DHT22;1368;49.484;11.112;2023-08-30T15:19:04;24.00;98.80
2721;DHT22;1368;49.484;11.112;2023-08-30T15:21:30;24.30;99.90
2721;DHT22;1368;49.484;11.112;2023-08-30T15:23:55;24.50;99.90
2721;DHT22;1368;49.484;11.112;2023-08-30T15:26:21;23.80;99.90
2721;DHT22;1368;49.484;11.112;2023-08-30T15:28:47;23.90;99.90
2721;DHT22;1368;49.484;11.112;2023-08-30T15:31:14;23.90;99.90
2721;DHT22;1368;49.484;11.112;2023-08-30T15:33:41;23.80;99.90
2721;DHT22;1368;49.484;11.112;2023-08-30T15:36:07;23.90;99.90
2721;DHT22;1368;49.484;11.112;2023-08-30T15:38:34;23.90;99.90
2721;DHT22;1368;49.484;11.112;2023-08-30T15:41:06;24.10;99.90
2721;DHT22;1368;49.484;11.112;2023-08-30T15:43:33;24.80;99.90
2721;DHT22;1368;49.484;11.112;2023-08-30T15:46:08;24.60;99.90
2721;DHT22;1368;49.484;11.112;2023-08-30T15:48:34;24.20;99.70
2721;DHT22;1368;49.484;11.112;2023-08-30T15:51:00;24.10;99.60